Time;durP1;ratioP1;P1;durP2;ratioP2;P2;SDS_P1;SDS_P2;PMS_P1;PMS_P2;Temp;Humidity;BMP_temperature;BMP_pressure;BME280_temperature;BME280_humidity;BME280_pressure;Samples;Min_cycle;Max_cycle;Signal;HPM_P1;HPM_P2
2022/01/30 00:00:56;;;;;;;3.50;3.20;;;7.00;99.90;;;;;;5024784;28;20189;-69
2022/01/30 00:03:22;;;;;;;3.00;2.70;;;6.90;99.90;;;;;;5023627;28;20207;-68
2022/01/30 00:05:48;;;;;;;4.27;2.90;;;6.90;99.90;;;;;;5027428;28;20526;-69
2022/01/30 00:08:14;;;;;;;3.20;2.73;;;6.90;99.90;;;;;;5022785;28;20534;-69
2022/01/30 00:10:40;;;;;;;3.00;2.70;;;6.90;99.90;;;;;;5026108;28;20722;-69
2022/01/30 00:13:12;;;;;;;3.27;2.30;;;6.90;99.90;;;;;;5024516;28;20533;-70
2022/01/30 00:15:46;;;;;;;2.73;2.27;;;7.00;99.90;;;;;;5025695;28;20470;-69
2022/01/30 00:20:48;;;;;;;2.83;2.53;;;7.00;99.90;;;;;;5024855;28;20467;-70
2022/01/30 00:23:23;;;;;;;3.00;2.60;;;7.00;99.90;;;;;;5025343;28;20427;-69
2022/01/30 00:25:54;;;;;;;2.13;1.93;;;7.00;99.90;;;;;;5025310;28;20470;-69
2022/01/30 00:28:22;;;;;;;2.57;2.03;;;7.00;99.90;;;;;;5006029;28;20446;-70
2022/01/30 00:30:49;;;;;;;2.93;2.50;;;6.90;99.90;;;;;;5027682;28;20941;-69
2022/01/30 00:33:14;;;;;;;3.03;2.60;;;6.90;99.90;;;;;;5025617;28;20493;-70
2022/01/30 00:35:40;;;;;;;3.37;2.80;;;6.90;99.90;;;;;;5025489;28;20886;-69
2022/01/30 00:38:11;;;;;;;7.50;2.73;;;6.90;99.90;;;;;;5024150;28;20192;-69
2022/01/30 00:40:37;;;;;;;3.33;2.90;;;6.90;99.90;;;;;;5026776;28;20185;-70
2022/01/30 00:43:04;;;;;;;2.47;2.03;;;6.90;99.90;;;;;;5008694;28;20439;-69
2022/01/30 00:45:29;;;;;;;3.10;2.60;;;6.90;99.90;;;;;;5025121;28;20512;-69
2022/01/30 00:47:55;;;;;;;2.70;2.50;;;6.90;99.90;;;;;;5025136;28;20431;-69
2022/01/30 00:50:21;;;;;;;2.80;2.13;;;6.90;99.90;;;;;;5025373;28;20652;-70
2022/01/30 00:52:52;;;;;;;3.67;2.73;;;6.90;99.90;;;;;;5009625;28;20184;-69
2022/01/30 00:55:17;;;;;;;3.37;2.77;;;6.90;99.90;;;;;;5026820;28;20204;-70
2022/01/30 00:57:43;;;;;;;2.83;2.30;;;7.00;99.90;;;;;;5024067;28;20446;-70
2022/01/30 01:00:09;;;;;;;2.90;2.60;;;7.00;99.90;;;;;;5023710;28;20188;-70
2022/01/30 01:02:35;;;;;;;3.23;2.50;;;7.00;99.90;;;;;;5026817;28;20722;-70
2022/01/30 01:05:04;;;;;;;2.73;2.40;;;7.10;99.90;;;;;;5027498;28;20534;-69
2022/01/30 01:07:32;;;;;;;3.40;2.87;;;7.10;99.90;;;;;;5023733;28;20192;-70
2022/01/30 01:10:06;;;;;;;3.50;2.20;;;7.20;99.90;;;;;;5024975;28;20475;-70
2022/01/30 01:12:53;;;;;;;2.10;1.90;;;7.20;99.90;;;;;;5026427;28;20995;-70
2022/01/30 01:23:44;;;;;;;2.40;2.10;;;7.10;99.90;;;;;;5009523;28;20538;-70
2022/01/30 01:26:10;;;;;;;2.40;2.17;;;7.10;99.90;;;;;;5023685;28;20498;-71
2022/01/30 01:28:36;;;;;;;2.97;2.67;;;7.00;99.90;;;;;;5024713;28;20838;-68
2022/01/30 01:31:02;;;;;;;2.83;2.33;;;7.00;99.90;;;;;;5022523;28;21114;-71
2022/01/30 01:33:39;;;;;;;3.47;3.17;;;7.00;99.90;;;;;;5024224;28;20193;-71
2022/01/30 01:36:05;;;;;;;3.17;2.67;;;7.00;99.90;;;;;;5024920;28;20483;-70
2022/01/30 01:38:31;;;;;;;3.07;2.77;;;7.00;99.90;;;;;;5012573;28;21194;-70
2022/01/30 01:40:57;;;;;;;3.43;2.87;;;6.90;99.90;;;;;;5025786;28;20615;-71
2022/01/30 01:43:24;;;;;;;2.80;2.50;;;7.00;99.90;;;;;;5023135;28;20279;-71
2022/01/30 01:45:52;;;;;;;4.90;2.33;;;7.00;99.90;;;;;;5028085;28;20521;-71
2022/01/30 01:48:19;;;;;;;3.50;3.10;;;6.90;99.90;;;;;;5028202;28;20516;-70
2022/01/30 01:50:53;;;;;;;4.13;2.50;;;6.90;99.90;;;;;;5025431;28;20499;-70
2022/01/30 01:53:24;;;;;;;3.23;2.80;;;6.90;99.90;;;;;;5029973;28;20438;-70
2022/01/30 01:55:51;;;;;;;2.50;2.30;;;6.90;99.90;;;;;;5027047;28;20871;-70
2022/01/30 01:58:17;;;;;;;3.40;3.00;;;6.90;99.90;;;;;;5026831;28;20419;-71
2022/01/30 02:00:43;;;;;;;3.10;2.80;;;6.90;99.90;;;;;;5028679;28;20455;-71
2022/01/30 02:03:10;;;;;;;3.80;3.10;;;6.90;99.90;;;;;;5026536;28;20946;-71
2022/01/30 02:05:39;;;;;;;3.33;2.60;;;6.90;99.90;;;;;;5029338;28;20915;-71
2022/01/30 02:10:53;;;;;;;2.70;2.50;;;6.90;99.90;;;;;;5029113;28;20458;-71
2022/01/30 02:13:46;;;;;;;3.37;2.43;;;6.90;99.90;;;;;;5029497;28;20815;-71
2022/01/30 02:27:03;;;;;;;2.63;2.33;;;6.80;99.90;;;;;;5025581;28;20519;-71
2022/01/30 02:29:29;;;;;;;3.17;2.30;;;6.80;99.90;;;;;;5025786;28;21009;-70
2022/01/30 02:31:57;;;;;;;2.50;2.30;;;6.80;99.90;;;;;;5025492;28;20526;-71
2022/01/30 02:34:27;;;;;;;3.53;2.50;;;6.80;99.90;;;;;;5028003;28;20419;-70
2022/01/30 02:36:54;;;;;;;3.40;2.20;;;6.80;99.90;;;;;;5022389;28;20530;-70
2022/01/30 02:39:20;;;;;;;2.90;2.60;;;6.80;99.90;;;;;;5027470;28;20431;-70
2022/01/30 02:41:46;;;;;;;2.30;2.10;;;6.80;99.90;;;;;;5027029;28;20474;-70
2022/01/30 02:46:47;;;;;;;2.33;1.93;;;6.90;99.90;;;;;;5028308;28;21248;-70
2022/01/30 02:52:02;;;;;;;2.50;2.17;;;6.80;99.90;;;;;;5023634;28;20816;-71
2022/01/30 02:54:29;;;;;;;2.90;2.20;;;6.80;99.90;;;;;;5028268;28;20538;-70
2022/01/30 02:56:55;;;;;;;3.10;2.70;;;6.80;99.90;;;;;;5027003;28;20870;-70
2022/01/30 02:59:22;;;;;;;3.00;2.13;;;6.70;99.90;;;;;;5025629;28;20493;-71
2022/01/30 03:01:47;;;;;;;2.13;1.93;;;6.80;99.90;;;;;;5025690;28;20671;-70
2022/01/30 03:04:13;;;;;;;2.40;2.20;;;6.80;99.90;;;;;;5028088;28;20439;-70
2022/01/30 03:06:39;;;;;;;3.17;2.20;;;6.80;99.90;;;;;;5024729;28;20280;-70
2022/01/30 03:09:07;;;;;;;2.33;1.90;;;6.80;99.90;;;;;;5026775;28;20490;-70
2022/01/30 03:11:33;;;;;;;2.43;2.23;;;6.80;99.90;;;;;;5027119;28;20181;-70
2022/01/30 03:13:59;;;;;;;2.73;2.20;;;6.80;99.90;;;;;;5024644;28;20855;-71
2022/01/30 03:16:24;;;;;;;2.17;1.97;;;6.80;99.90;;;;;;5027133;28;20482;-71
2022/01/30 03:18:50;;;;;;;2.53;1.90;;;6.80;99.90;;;;;;5026870;28;20423;-70
2022/01/30 03:21:17;;;;;;;2.53;2.17;;;6.90;99.90;;;;;;5027422;28;20908;-71
2022/01/30 03:23:42;;;;;;;3.33;2.10;;;6.80;99.90;;;;;;5027142;28;20455;-70
2022/01/30 03:26:09;;;;;;;1.90;1.70;;;6.90;99.90;;;;;;5025554;28;20443;-70
2022/01/30 03:28:38;;;;;;;2.43;1.87;;;6.80;99.90;;;;;;5026255;28;20189;-70
2022/01/30 03:31:06;;;;;;;2.00;1.80;;;6.90;99.90;;;;;;5024108;28;20431;-71
2022/01/30 03:33:32;;;;;;;2.90;2.43;;;6.90;99.90;;;;;;5027262;28;20787;-70
2022/01/30 03:35:58;;;;;;;2.27;2.07;;;6.90;99.90;;;;;;5025259;28;20462;-70
2022/01/30 03:38:24;;;;;;;2.90;2.20;;;6.80;99.90;;;;;;5024881;28;20173;-70
2022/01/30 03:40:50;;;;;;;2.70;2.20;;;6.80;99.90;;;;;;5026581;28;20212;-70
2022/01/30 03:43:16;;;;;;;2.83;2.37;;;6.80;99.90;;;;;;5023720;28;20538;-70
2022/01/30 03:45:46;;;;;;;2.37;2.17;;;6.90;99.90;;;;;;5025503;28;20976;-71
2022/01/30 03:48:15;;;;;;;2.80;2.00;;;6.90;99.90;;;;;;5025195;28;20724;-70
2022/01/30 03:50:42;;;;;;;2.20;2.00;;;6.90;99.90;;;;;;5026491;28;20449;-70
2022/01/30 03:53:08;;;;;;;2.83;1.90;;;6.90;99.90;;;;;;5027352;28;20423;-70
2022/01/30 03:55:34;;;;;;;2.10;1.90;;;6.90;99.90;;;;;;5006134;28;21270;-70
2022/01/30 03:58:00;;;;;;;2.00;1.80;;;6.90;99.90;;;;;;5026342;28;20435;-70
2022/01/30 04:00:26;;;;;;;2.97;2.40;;;6.90;99.90;;;;;;5026703;28;20447;-70
2022/01/30 04:02:52;;;;;;;2.30;2.10;;;6.80;99.90;;;;;;5026858;28;20220;-70
2022/01/30 04:05:17;;;;;;;2.67;2.37;;;6.80;99.90;;;;;;5024043;28;20211;-70
2022/01/30 04:07:45;;;;;;;2.30;2.10;;;6.80;99.90;;;;;;5024186;28;20996;-70
2022/01/30 04:10:11;;;;;;;2.63;2.43;;;6.80;99.90;;;;;;5026483;28;20628;-70
2022/01/30 04:12:37;;;;;;;2.70;2.50;;;6.70;99.90;;;;;;5020816;28;20475;-69
2022/01/30 04:15:03;;;;;;;2.60;2.20;;;6.70;99.90;;;;;;5025961;28;20458;-70
2022/01/30 04:17:29;;;;;;;3.70;2.77;;;6.70;99.90;;;;;;5026938;28;20189;-70
2022/01/30 04:19:55;;;;;;;3.20;2.30;;;6.70;99.90;;;;;;5023657;28;20423;-69
2022/01/30 04:22:20;;;;;;;3.23;2.60;;;6.70;99.90;;;;;;5024914;28;20559;-70
2022/01/30 04:24:46;;;;;;;2.17;1.87;;;6.70;99.90;;;;;;5025142;28;20228;-70
2022/01/30 04:27:12;;;;;;;3.70;2.10;;;6.70;99.90;;;;;;5026417;28;20191;-69
2022/01/30 04:29:38;;;;;;;2.40;2.20;;;6.70;99.90;;;;;;5023985;28;20262;-70
2022/01/30 04:32:04;;;;;;;2.97;2.27;;;6.70;99.90;;;;;;5024329;28;20566;-70
2022/01/30 04:34:30;;;;;;;2.30;2.10;;;6.60;99.90;;;;;;5025473;28;21006;-69
2022/01/30 04:37:01;;;;;;;2.50;2.30;;;6.70;99.90;;;;;;5022726;28;20447;-70
2022/01/30 04:52:54;;;;;;;3.83;2.67;;;6.60;99.90;;;;;;5025434;28;20480;-69
2022/01/30 05:00:55;;;;;;;2.70;2.30;;;6.60;99.90;;;;;;5026247;28;20482;-70
2022/01/30 05:06:00;;;;;;;3.47;2.47;;;6.60;99.90;;;;;;5022246;28;20878;-69
2022/01/30 05:08:26;;;;;;;3.90;2.60;;;6.50;99.90;;;;;;5025884;28;20423;-68
2022/01/30 05:10:53;;;;;;;3.80;2.40;;;6.50;99.90;;;;;;5023154;28;20423;-68
2022/01/30 05:13:22;;;;;;;3.10;2.80;;;6.50;99.90;;;;;;5023567;28;20447;-69
2022/01/30 05:15:48;;;;;;;2.90;2.60;;;6.40;99.90;;;;;;5023727;28;21451;-69
2022/01/30 05:18:23;;;;;;;3.73;2.43;;;6.50;99.90;;;;;;5025263;28;20550;-69
2022/01/30 05:20:48;;;;;;;3.93;2.97;;;6.50;99.90;;;;;;5028037;28;20499;-69
2022/01/30 05:23:16;;;;;;;2.90;2.40;;;6.50;99.90;;;;;;5027070;28;20431;-69
2022/01/30 05:25:46;;;;;;;3.63;3.33;;;6.50;99.90;;;;;;5026280;28;20210;-69
2022/01/30 05:28:13;;;;;;;3.87;3.10;;;6.50;99.90;;;;;;5026878;28;20522;-69
2022/01/30 05:30:39;;;;;;;4.20;3.20;;;6.60;99.90;;;;;;5027569;28;20501;-69
2022/01/30 05:33:05;;;;;;;4.50;3.20;;;6.60;99.90;;;;;;5029235;28;20446;-69
2022/01/30 05:35:31;;;;;;;4.23;3.30;;;6.60;99.90;;;;;;5026703;28;20491;-69
2022/01/30 05:37:57;;;;;;;3.93;3.00;;;6.60;99.90;;;;;;5025397;28;20532;-69
2022/01/30 05:40:23;;;;;;;2.90;2.57;;;6.60;99.90;;;;;;5027631;28;20485;-69
2022/01/30 05:42:50;;;;;;;6.93;3.33;;;6.50;99.90;;;;;;5028353;28;20584;-68
2022/01/30 05:47:47;;;;;;;4.30;3.90;;;6.60;99.90;;;;;;5028135;28;20788;-69
2022/01/30 05:50:14;;;;;;;3.70;3.17;;;6.60;99.90;;;;;;5028856;28;20534;-68
2022/01/30 05:52:39;;;;;;;3.53;3.23;;;6.50;99.90;;;;;;5024511;28;20435;-69
2022/01/30 05:55:05;;;;;;;5.03;3.80;;;6.50;99.90;;;;;;5027211;28;20949;-68
2022/01/30 05:57:31;;;;;;;3.70;3.40;;;6.50;99.90;;;;;;5011101;28;20218;-69
2022/01/30 05:59:56;;;;;;;6.20;3.20;;;6.40;99.90;;;;;;5026571;28;20475;-69
2022/01/30 06:02:22;;;;;;;3.80;3.33;;;6.40;99.90;;;;;;5028521;28;20188;-69
2022/01/30 06:04:47;;;;;;;4.80;3.40;;;6.30;99.90;;;;;;5027208;28;20326;-69
2022/01/30 06:07:13;;;;;;;4.00;3.50;;;6.30;99.90;;;;;;5028282;28;20184;-68
2022/01/30 06:09:39;;;;;;;4.77;3.87;;;6.30;99.90;;;;;;5027637;28;20214;-68
2022/01/30 06:12:05;;;;;;;3.93;3.53;;;6.30;99.90;;;;;;5027491;28;20223;-69
2022/01/30 06:14:31;;;;;;;4.40;3.90;;;6.30;99.90;;;;;;5027567;28;21106;-69
2022/01/30 06:16:57;;;;;;;4.00;3.60;;;6.30;99.90;;;;;;5025961;28;20465;-69
2022/01/30 06:19:22;;;;;;;4.33;3.93;;;6.30;99.90;;;;;;5027868;28;20199;-69
2022/01/30 06:21:49;;;;;;;4.00;3.60;;;6.30;99.90;;;;;;5025619;28;20530;-68
2022/01/30 06:24:15;;;;;;;4.30;3.90;;;6.20;99.90;;;;;;5028806;28;20346;-69
2022/01/30 06:26:41;;;;;;;6.37;4.53;;;6.20;99.90;;;;;;5026329;28;20471;-69
2022/01/30 06:29:06;;;;;;;6.00;4.10;;;6.30;99.90;;;;;;5027289;28;20623;-69
2022/01/30 06:31:32;;;;;;;3.87;3.47;;;6.30;99.90;;;;;;5027442;28;20423;-69
2022/01/30 06:33:58;;;;;;;5.40;3.40;;;6.30;99.90;;;;;;5024748;28;20180;-68
2022/01/30 06:36:23;;;;;;;4.40;3.80;;;6.20;99.90;;;;;;5024270;28;20488;-68
2022/01/30 06:38:51;;;;;;;6.73;4.27;;;6.20;99.90;;;;;;5026774;28;20212;-68
2022/01/30 06:41:17;;;;;;;4.20;3.87;;;6.30;99.90;;;;;;5021668;28;20187;-68
2022/01/30 06:43:42;;;;;;;3.90;3.60;;;6.30;99.90;;;;;;5028327;28;20433;-69
2022/01/30 06:46:10;;;;;;;7.17;5.53;;;6.30;99.90;;;;;;5026120;28;20205;-68
2022/01/30 06:48:36;;;;;;;5.67;3.63;;;6.40;99.90;;;;;;5014559;28;20188;-69
2022/01/30 06:51:02;;;;;;;5.00;3.83;;;6.40;99.90;;;;;;5025518;28;20442;-68
2022/01/30 06:53:28;;;;;;;4.00;3.47;;;6.40;99.90;;;;;;5025653;28;20431;-68
2022/01/30 06:55:53;;;;;;;4.20;3.40;;;6.30;99.90;;;;;;5028319;28;20295;-68
2022/01/30 06:58:19;;;;;;;3.97;3.60;;;6.30;99.90;;;;;;5026479;28;20196;-69
2022/01/30 07:00:44;;;;;;;4.00;3.47;;;6.30;99.90;;;;;;5027465;28;20226;-69
2022/01/30 07:03:10;;;;;;;4.80;3.53;;;6.20;99.90;;;;;;5026492;28;20223;-69
2022/01/30 07:05:36;;;;;;;5.83;3.77;;;6.20;99.90;;;;;;5028192;28;20200;-69
2022/01/30 07:08:01;;;;;;;3.40;2.83;;;6.20;99.90;;;;;;5024849;28;20725;-68
2022/01/30 07:10:27;;;;;;;3.60;3.20;;;6.10;99.90;;;;;;5027546;28;20204;-68
2022/01/30 07:12:52;;;;;;;3.93;3.23;;;6.20;99.90;;;;;;5027187;28;20172;-69
2022/01/30 07:15:18;;;;;;;3.43;3.13;;;6.20;99.90;;;;;;5027871;28;20241;-69
2022/01/30 07:17:44;;;;;;;4.67;3.00;;;6.20;99.90;;;;;;5025740;28;20267;-69
2022/01/30 07:20:11;;;;;;;3.30;3.00;;;6.20;99.90;;;;;;5027805;28;20566;-69
2022/01/30 07:22:37;;;;;;;3.43;2.90;;;6.30;99.90;;;;;;5027146;28;20193;-69
2022/01/30 07:25:05;;;;;;;3.30;3.00;;;6.20;99.90;;;;;;5027676;28;20439;-69
2022/01/30 07:27:31;;;;;;;4.03;3.10;;;6.20;99.90;;;;;;5025644;28;20438;-69
2022/01/30 07:29:57;;;;;;;4.90;2.63;;;6.20;99.90;;;;;;5028786;28;20829;-70
2022/01/30 07:32:22;;;;;;;4.70;3.20;;;6.10;99.90;;;;;;5022806;28;20435;-69
2022/01/30 07:34:52;;;;;;;2.77;2.53;;;6.00;99.90;;;;;;5026464;28;20204;-70
2022/01/30 07:37:18;;;;;;;3.63;3.33;;;6.00;99.90;;;;;;5025001;28;20200;-69
2022/01/30 07:39:44;;;;;;;3.13;2.63;;;6.00;99.90;;;;;;5026127;28;20453;-69
2022/01/30 07:42:10;;;;;;;5.53;3.40;;;5.90;99.90;;;;;;5025870;28;20415;-69
2022/01/30 07:44:36;;;;;;;4.17;3.23;;;5.90;99.90;;;;;;5026609;28;20215;-70
2022/01/30 07:47:02;;;;;;;3.57;3.20;;;6.00;99.90;;;;;;5024319;28;20181;-69
2022/01/30 07:49:28;;;;;;;4.40;3.40;;;5.90;99.90;;;;;;5024893;28;20631;-69
2022/01/30 07:51:54;;;;;;;4.37;3.43;;;5.80;99.90;;;;;;5026538;28;20423;-69
2022/01/30 07:54:20;;;;;;;3.80;3.50;;;5.70;99.90;;;;;;5025663;28;20193;-70
2022/01/30 07:56:46;;;;;;;5.33;3.63;;;5.80;99.90;;;;;;5025563;28;20467;-70
2022/01/30 07:59:12;;;;;;;8.07;4.20;;;5.90;99.90;;;;;;5027341;28;20454;-70
2022/01/30 08:01:37;;;;;;;4.20;3.50;;;5.80;99.90;;;;;;5025947;28;20598;-69
2022/01/30 08:04:10;;;;;;;6.00;3.50;;;5.90;99.90;;;;;;5078932;27;20593;-69
2022/01/30 08:06:36;;;;;;;18.10;3.90;;;6.00;99.90;;;;;;5061598;28;20434;-69
2022/01/30 08:09:03;;;;;;;5.47;3.60;;;6.00;99.90;;;;;;5058874;28;20198;-69
2022/01/30 08:11:29;;;;;;;5.77;3.57;;;6.10;99.90;;;;;;5058107;28;20474;-69
2022/01/30 08:13:54;;;;;;;4.80;3.30;;;6.20;99.90;;;;;;5057893;28;20533;-69
2022/01/30 08:16:21;;;;;;;7.63;3.73;;;6.30;99.90;;;;;;5062281;28;20229;-69
2022/01/30 08:18:47;;;;;;;4.40;3.20;;;6.40;99.90;;;;;;5059359;28;20550;-69
2022/01/30 08:21:12;;;;;;;6.40;3.50;;;6.40;99.90;;;;;;5060729;28;20456;-69
2022/01/30 08:23:38;;;;;;;4.00;3.40;;;6.40;99.90;;;;;;5060888;28;20713;-69
2022/01/30 08:26:04;;;;;;;3.40;3.00;;;6.40;99.90;;;;;;5060414;28;20206;-68
2022/01/30 08:28:30;;;;;;;6.13;3.33;;;6.50;99.90;;;;;;5063299;28;20233;-69
2022/01/30 08:30:55;;;;;;;4.30;3.30;;;6.60;99.90;;;;;;5058691;28;20480;-68
2022/01/30 08:33:21;;;;;;;4.63;3.30;;;6.50;99.90;;;;;;5057431;28;21253;-69
2022/01/30 08:35:47;;;;;;;8.73;3.90;;;6.40;99.90;;;;;;5060010;28;20262;-69
2022/01/30 08:38:16;;;;;;;6.10;4.30;;;6.40;99.90;;;;;;5058914;28;20215;-69
2022/01/30 08:40:42;;;;;;;6.60;4.50;;;6.40;99.90;;;;;;5060075;28;20449;-69
2022/01/30 08:43:07;;;;;;;4.43;3.97;;;6.40;99.90;;;;;;5057168;28;20505;-68
2022/01/30 08:45:33;;;;;;;7.13;4.13;;;6.40;99.90;;;;;;5058942;28;20442;-68
2022/01/30 08:47:59;;;;;;;8.80;3.87;;;6.40;99.90;;;;;;5061071;28;20190;-69
2022/01/30 08:50:25;;;;;;;5.40;3.83;;;6.40;99.90;;;;;;5059196;28;20467;-69
2022/01/30 08:52:51;;;;;;;8.83;4.70;;;6.50;99.90;;;;;;5060254;28;20204;-69
2022/01/30 08:55:18;;;;;;;6.93;4.30;;;6.40;99.90;;;;;;5059240;28;20183;-69
2022/01/30 08:57:44;;;;;;;10.30;4.70;;;6.40;99.90;;;;;;5060328;28;20441;-69
2022/01/30 09:00:13;;;;;;;8.80;4.43;;;6.40;99.90;;;;;;5059723;28;20441;-69
2022/01/30 09:02:39;;;;;;;9.27;3.50;;;6.40;99.90;;;;;;5058374;28;20477;-69
2022/01/30 09:05:07;;;;;;;9.93;5.10;;;6.40;99.90;;;;;;5062141;28;20461;-69
2022/01/30 09:07:33;;;;;;;9.23;4.47;;;6.40;99.90;;;;;;5060718;28;20418;-69
2022/01/30 09:09:59;;;;;;;14.23;5.20;;;6.40;99.90;;;;;;5058593;28;20550;-69
2022/01/30 09:12:25;;;;;;;7.50;5.10;;;6.50;99.90;;;;;;5060781;28;20522;-69
2022/01/30 09:14:51;;;;;;;11.47;4.80;;;6.60;99.90;;;;;;5049736;28;20199;-69
2022/01/30 09:17:17;;;;;;;8.03;5.20;;;6.60;99.90;;;;;;5046742;28;20414;-69
2022/01/30 09:19:45;;;;;;;12.07;5.33;;;6.70;99.90;;;;;;5045931;28;20474;-69
2022/01/30 09:22:13;;;;;;;13.93;5.63;;;6.80;99.90;;;;;;5048235;28;20831;-69
2022/01/30 09:24:39;;;;;;;11.17;5.00;;;6.80;99.90;;;;;;5044424;28;20438;-70
2022/01/30 09:27:06;;;;;;;10.30;4.90;;;6.80;99.90;;;;;;5042446;28;20433;-70
2022/01/30 09:29:33;;;;;;;15.23;4.43;;;6.90;99.90;;;;;;5044439;28;20411;-70
2022/01/30 09:32:00;;;;;;;6.20;3.30;;;7.00;99.90;;;;;;5044816;28;20442;-70
2022/01/30 09:34:25;;;;;;;14.03;5.43;;;7.10;99.90;;;;;;5049572;28;20525;-69
2022/01/30 09:36:51;;;;;;;23.50;5.77;;;7.30;99.90;;;;;;5044811;28;20896;-69
2022/01/30 09:39:16;;;;;;;19.23;4.73;;;7.40;99.90;;;;;;5047735;28;20271;-70
2022/01/30 09:41:43;;;;;;;12.03;5.43;;;7.40;99.90;;;;;;5046964;28;20226;-69
2022/01/30 09:44:10;;;;;;;13.70;4.50;;;7.40;99.90;;;;;;5043862;28;20204;-69
2022/01/30 09:46:39;;;;;;;15.30;4.73;;;7.40;99.90;;;;;;5048981;28;20435;-69
2022/01/30 09:49:06;;;;;;;6.40;3.43;;;7.50;99.90;;;;;;5047374;28;20498;-69
2022/01/30 09:51:34;;;;;;;16.87;4.70;;;7.60;99.90;;;;;;5046663;28;20435;-70
2022/01/30 09:54:01;;;;;;;13.43;4.93;;;7.70;99.90;;;;;;5045755;28;20465;-69
2022/01/30 09:56:27;;;;;;;8.80;4.27;;;7.80;99.90;;;;;;5042010;28;20927;-69
2022/01/30 09:58:53;;;;;;;8.70;3.93;;;7.90;99.90;;;;;;5042693;28;20438;-69
2022/01/30 10:01:18;;;;;;;13.60;3.80;;;7.80;99.90;;;;;;5043681;28;20481;-69
2022/01/30 10:03:47;;;;;;;15.10;3.80;;;7.90;99.90;;;;;;5047199;28;20203;-69
2022/01/30 10:06:17;;;;;;;9.17;3.53;;;7.80;99.90;;;;;;5046828;28;20437;-70
2022/01/30 10:08:45;;;;;;;12.27;3.80;;;7.80;99.90;;;;;;5042542;28;20808;-69
2022/01/30 10:11:30;;;;;;;23.13;6.00;;;8.00;99.90;;;;;;5046050;28;20475;-69
2022/01/30 10:14:21;;;;;;;11.20;3.90;;;8.10;99.90;;;;;;5039778;28;20477;-71
2022/01/30 10:16:49;;;;;;;10.27;3.53;;;8.20;99.90;;;;;;5039396;28;20456;-68
2022/01/30 10:19:20;;;;;;;10.50;3.80;;;8.20;99.90;;;;;;5046345;28;20721;-71
2022/01/30 10:22:04;;;;;;;12.40;3.40;;;8.10;99.90;;;;;;5042561;28;20429;-69
2022/01/30 10:24:29;;;;;;;9.07;3.87;;;8.00;99.90;;;;;;5040382;28;20852;-71
2022/01/30 10:27:02;;;;;;;8.50;3.10;;;8.00;99.90;;;;;;5044424;28;20426;-69
2022/01/30 10:29:30;;;;;;;11.13;3.73;;;8.10;99.90;;;;;;5040953;28;20226;-69
2022/01/30 10:32:07;;;;;;;9.40;3.40;;;8.10;99.90;;;;;;5042450;28;20562;-69
2022/01/30 10:34:34;;;;;;;16.53;2.73;;;8.10;99.90;;;;;;5042381;28;20484;-69
2022/01/30 10:37:23;;;;;;;12.57;4.30;;;8.10;99.90;;;;;;5048835;28;20446;-69
2022/01/30 10:40:06;;;;;;;15.13;3.83;;;8.20;99.90;;;;;;5040060;28;20813;-69
2022/01/30 10:42:41;;;;;;;10.70;3.20;;;8.30;99.90;;;;;;5037199;28;21021;-69
2022/01/30 10:45:25;;;;;;;10.33;3.30;;;8.30;99.90;;;;;;5046427;28;20453;-69
2022/01/30 10:48:06;;;;;;;10.77;3.13;;;8.30;99.90;;;;;;5045138;28;20520;-69
2022/01/30 10:50:32;;;;;;;8.50;3.50;;;8.30;99.90;;;;;;5039668;28;21032;-69
2022/01/30 10:53:02;;;;;;;6.33;3.70;;;8.50;99.90;;;;;;5044547;28;20442;-69
2022/01/30 10:55:36;;;;;;;7.70;3.00;;;8.60;99.90;;;;;;5044524;28;20264;-69
2022/01/30 10:58:04;;;;;;;10.00;3.37;;;8.80;99.90;;;;;;5043468;28;20500;-69
2022/01/30 11:00:44;;;;;;;9.40;3.70;;;8.70;99.90;;;;;;5042684;28;20436;-69
2022/01/30 11:03:30;;;;;;;7.00;2.60;;;8.60;99.90;;;;;;5043251;28;20532;-68
2022/01/30 11:06:00;;;;;;;10.27;2.90;;;8.60;99.90;;;;;;5043485;28;20598;-69
2022/01/30 11:08:28;;;;;;;13.60;3.43;;;8.60;99.90;;;;;;5044126;28;20453;-68
2022/01/30 11:11:04;;;;;;;11.03;3.37;;;8.40;99.90;;;;;;5044119;28;20415;-68
2022/01/30 11:13:44;;;;;;;7.00;2.67;;;8.50;99.90;;;;;;5043860;28;20434;-68
2022/01/30 11:18:57;;;;;;;9.90;2.60;;;8.40;99.90;;;;;;5042975;28;20882;-69
2022/01/30 11:21:24;;;;;;;10.00;3.90;;;8.40;99.90;;;;;;5043149;28;20463;-69
2022/01/30 11:23:51;;;;;;;9.60;3.20;;;8.50;99.90;;;;;;5041447;28;20473;-69
2022/01/30 11:26:18;;;;;;;10.43;2.83;;;8.60;99.90;;;;;;5043916;28;20414;-69
2022/01/30 11:28:47;;;;;;;6.40;3.60;;;8.50;99.90;;;;;;5046192;28;20895;-69
2022/01/30 11:31:16;;;;;;;7.63;2.97;;;8.40;99.90;;;;;;5044740;28;20677;-70
2022/01/30 11:33:43;;;;;;;5.20;2.37;;;8.40;99.90;;;;;;5040897;28;20431;-70
2022/01/30 11:36:10;;;;;;;12.83;3.40;;;8.50;99.90;;;;;;5041664;28;21002;-69
2022/01/30 11:38:37;;;;;;;5.70;2.80;;;8.60;99.90;;;;;;5043214;28;20786;-70
2022/01/30 11:41:12;;;;;;;10.00;3.10;;;8.70;99.90;;;;;;5040831;28;20768;-69
2022/01/30 11:43:37;;;;;;;7.67;3.40;;;8.80;99.90;;;;;;5043868;28;20822;-69
2022/01/30 11:46:14;;;;;;;4.43;2.20;;;8.80;99.90;;;;;;5041239;28;20422;-69
2022/01/30 11:48:41;;;;;;;5.07;3.33;;;8.70;99.90;;;;;;5040258;28;20179;-70
2022/01/30 11:51:07;;;;;;;8.53;2.80;;;8.70;99.90;;;;;;5046022;28;20431;-69
2022/01/30 11:53:33;;;;;;;7.07;2.80;;;8.80;99.90;;;;;;5042102;28;21051;-69
2022/01/30 11:56:01;;;;;;;6.53;2.73;;;8.80;99.90;;;;;;5045342;28;20549;-69
2022/01/30 11:58:30;;;;;;;9.40;3.03;;;8.80;99.90;;;;;;5044722;28;20172;-70
2022/01/30 12:00:57;;;;;;;8.80;3.73;;;8.90;99.90;;;;;;5042358;28;20434;-69
2022/01/30 12:03:31;;;;;;;7.00;3.20;;;8.80;99.90;;;;;;5045729;28;20473;-70
2022/01/30 12:06:19;;;;;;;10.97;4.70;;;8.90;99.90;;;;;;5039387;28;20939;-69
2022/01/30 12:08:53;;;;;;;16.07;3.20;;;8.90;99.90;;;;;;5043579;28;20419;-70
2022/01/30 12:11:55;;;;;;;7.70;3.20;;;8.90;99.90;;;;;;5040878;28;20413;-69
2022/01/30 12:14:20;;;;;;;9.10;2.40;;;9.10;99.90;;;;;;5041461;28;20512;-70
2022/01/30 12:16:58;;;;;;;8.23;3.47;;;9.20;99.90;;;;;;5043568;28;20569;-69
2022/01/30 12:22:16;;;;;;;11.70;3.50;;;9.30;99.90;;;;;;5039909;28;20434;-70
2022/01/30 12:24:49;;;;;;;11.03;3.37;;;9.50;99.90;;;;;;5044010;28;20453;-70
2022/01/30 12:27:15;;;;;;;6.30;2.70;;;9.60;99.90;;;;;;5042945;28;20426;-69
2022/01/30 12:29:45;;;;;;;10.20;2.87;;;9.70;99.90;;;;;;5042899;28;20449;-69
2022/01/30 12:32:20;;;;;;;9.30;2.80;;;9.90;99.90;;;;;;5043430;28;20693;-70
2022/01/30 12:34:54;;;;;;;4.80;2.50;;;9.80;99.90;;;;;;5041265;28;20476;-69
2022/01/30 12:37:28;;;;;;;8.77;2.90;;;9.80;99.90;;;;;;5043237;28;20426;-69
2022/01/30 12:39:55;;;;;;;11.33;3.43;;;9.80;99.90;;;;;;5045577;28;20419;-70
2022/01/30 12:42:25;;;;;;;6.43;3.13;;;9.70;99.90;;;;;;5040720;28;20492;-69
2022/01/30 12:44:51;;;;;;;13.00;3.83;;;9.80;99.90;;;;;;5044767;28;20407;-69
2022/01/30 12:47:17;;;;;;;5.53;2.43;;;9.90;99.90;;;;;;5040756;28;20442;-70
2022/01/30 12:49:49;;;;;;;5.77;3.47;;;10.10;99.90;;;;;;5043341;28;20280;-70
2022/01/30 12:52:32;;;;;;;6.67;3.30;;;10.30;99.90;;;;;;5046625;28;20193;-70
2022/01/30 12:55:01;;;;;;;8.13;2.90;;;11.70;99.90;;;;;;5045369;28;20429;-68
2022/01/30 12:57:30;;;;;;;5.83;2.90;;;11.50;99.90;;;;;;5037155;28;20453;-68
2022/01/30 12:59:58;;;;;;;9.57;2.90;;;11.00;99.90;;;;;;5045525;28;20442;-68
2022/01/30 13:02:25;;;;;;;10.13;2.93;;;10.70;99.90;;;;;;5047867;28;20470;-69
2022/01/30 13:05:10;;;;;;;6.80;2.93;;;12.10;99.90;;;;;;5044600;28;20430;-69
2022/01/30 13:07:38;;;;;;;11.93;2.90;;;13.40;99.90;;;;;;5045991;28;20831;-69
2022/01/30 13:10:09;;;;;;;7.47;3.67;;;14.40;98.40;;;;;;5046553;28;20436;-70
2022/01/30 13:12:35;;;;;;;8.37;2.80;;;14.70;94.80;;;;;;5044122;28;20454;-70
2022/01/30 13:15:09;;;;;;;8.63;2.90;;;15.50;92.40;;;;;;5043904;28;20590;-70
2022/01/30 13:17:35;;;;;;;7.07;2.80;;;15.20;88.90;;;;;;5047402;28;20895;-70
2022/01/30 13:20:01;;;;;;;6.90;2.40;;;16.50;86.00;;;;;;5045393;28;20974;-70
2022/01/30 13:22:29;;;;;;;7.20;2.87;;;16.70;78.50;;;;;;5046459;28;21036;-70
2022/01/30 13:24:57;;;;;;;8.50;3.03;;;15.50;78.30;;;;;;5044610;28;20511;-69
2022/01/30 13:27:23;;;;;;;9.83;2.90;;;15.40;78.10;;;;;;5041663;28;20935;-70
2022/01/30 13:29:48;;;;;;;6.90;2.67;;;16.20;79.30;;;;;;5046535;28;20484;-69
2022/01/30 13:32:14;;;;;;;7.23;3.17;;;16.20;76.70;;;;;;5045749;28;20438;-70
2022/01/30 13:34:42;;;;;;;6.63;2.60;;;15.70;76.00;;;;;;5050533;28;20257;-69
2022/01/30 13:37:16;;;;;;;4.83;2.40;;;14.10;76.50;;;;;;5043183;28;20191;-69
2022/01/30 13:40:05;;;;;;;11.97;3.17;;;13.30;79.90;;;;;;5047614;28;20520;-69
2022/01/30 13:47:58;;;;;;;11.73;3.27;;;11.30;87.90;;;;;;5043899;28;20510;-69
2022/01/30 13:50:31;;;;;;;8.03;3.00;;;11.20;89.80;;;;;;5040378;28;20468;-69
2022/01/30 13:53:03;;;;;;;5.93;2.90;;;11.10;90.20;;;;;;5045167;28;20565;-69
2022/01/30 13:55:29;;;;;;;5.37;2.53;;;11.10;90.70;;;;;;5046039;28;20505;-69
2022/01/30 13:57:57;;;;;;;9.23;3.80;;;10.90;90.70;;;;;;5042509;28;21010;-69
2022/01/30 14:00:23;;;;;;;8.43;2.70;;;10.60;91.10;;;;;;5041552;28;20446;-69
2022/01/30 14:03:05;;;;;;;12.60;3.03;;;10.90;91.30;;;;;;5041627;28;20478;-69
2022/01/30 14:05:37;;;;;;;7.20;2.80;;;10.90;91.20;;;;;;5044018;28;20954;-69